createdAt,value
2023-11-25T00:00:55.571Z,2.55
2023-11-25T00:03:22.812Z,3.55
2023-11-25T00:05:50.114Z,3.05
2023-11-25T00:08:16.709Z,9.60
2023-11-25T00:10:43.340Z,2.08
2023-11-25T00:13:10.277Z,2.58
2023-11-25T00:15:36.956Z,3.50
2023-11-25T00:18:04.351Z,4.07
2023-11-25T00:20:31.053Z,2.88
2023-11-25T00:22:57.719Z,4.78
2023-11-25T00:25:25.496Z,1.88
2023-11-25T00:27:52.237Z,4.10
2023-11-25T00:30:20.027Z,4.28
2023-11-25T00:32:47.229Z,5.43
2023-11-25T00:35:15.156Z,3.38
2023-11-25T00:37:42.259Z,7.88
2023-11-25T00:40:17.746Z,11.07
2023-11-25T00:42:44.678Z,6.90
2023-11-25T00:45:11.707Z,3.10
2023-11-25T00:47:42.756Z,5.47
2023-11-25T00:50:11.206Z,4.80
2023-11-25T00:52:39.081Z,6.23
2023-11-25T00:55:07.658Z,5.30
2023-11-25T00:57:34.722Z,4.78
2023-11-25T01:00:01.389Z,6.72
2023-11-25T01:02:29.146Z,12.80
2023-11-25T01:04:56.087Z,9.40
2023-11-25T01:07:22.807Z,6.65
2023-11-25T01:09:49.870Z,11.23
2023-11-25T01:12:16.509Z,3.40
2023-11-25T01:14:43.215Z,5.50
2023-11-25T01:17:10.192Z,4.90
2023-11-25T01:19:37.611Z,5.32
2023-11-25T01:22:05.072Z,3.95
2023-11-25T01:24:31.977Z,6.65
2023-11-25T01:26:59.218Z,7.25
2023-11-25T01:29:26.072Z,6.35
2023-11-25T01:31:52.778Z,3.17
2023-11-25T01:34:19.519Z,7.55
2023-11-25T01:36:46.313Z,6.20
2023-11-25T01:39:14.816Z,4.20
2023-11-25T01:41:41.626Z,9.73
2023-11-25T01:44:08.587Z,4.22
2023-11-25T01:46:39.953Z,7.65
2023-11-25T01:49:11.788Z,4.20
2023-11-25T01:51:45.433Z,6.05
2023-11-25T01:54:16.022Z,5.13
2023-11-25T01:56:45.773Z,8.60
2023-11-25T01:59:15.310Z,10.43
2023-11-25T02:01:42.609Z,4.45
2023-11-25T02:04:09.528Z,4.47
2023-11-25T02:06:36.328Z,4.43
2023-11-25T02:09:04.411Z,8.65
2023-11-25T02:11:31.047Z,9.70
2023-11-25T02:13:57.664Z,8.02
2023-11-25T02:16:24.605Z,5.57
2023-11-25T02:18:52.661Z,8.90
2023-11-25T02:21:20.864Z,9.80
2023-11-25T02:23:48.485Z,12.15
2023-11-25T02:26:15.305Z,5.97
2023-11-25T02:28:42.111Z,7.00
2023-11-25T02:31:09.099Z,9.07
2023-11-25T02:33:36.059Z,4.25
2023-11-25T02:36:04.268Z,8.60
2023-11-25T02:38:31.418Z,5.67
2023-11-25T02:40:58.130Z,13.90
2023-11-25T02:43:24.801Z,7.97
2023-11-25T02:45:51.412Z,8.38
2023-11-25T02:48:18.375Z,12.48
2023-11-25T02:50:45.278Z,12.02
2023-11-25T02:53:12.249Z,7.30
2023-11-25T02:55:38.898Z,4.53
2023-11-25T02:58:05.584Z,7.90
2023-11-25T03:00:37.687Z,12.18
2023-11-25T03:03:23.598Z,10.15
2023-11-25T03:05:54.158Z,8.73
2023-11-25T03:08:23.415Z,6.40
2023-11-25T03:13:18.768Z,8.70
2023-11-25T03:15:45.752Z,6.50
2023-11-25T03:18:12.531Z,8.57
2023-11-25T03:20:40.884Z,3.45
2023-11-25T03:23:08.106Z,9.00
2023-11-25T03:25:35.071Z,9.05
2023-11-25T03:28:05.940Z,5.00
2023-11-25T03:30:32.916Z,7.00
2023-11-25T03:32:59.599Z,6.07
2023-11-25T03:35:26.278Z,7.55
2023-11-25T03:37:53.138Z,7.20
2023-11-25T03:40:19.821Z,5.63
2023-11-25T03:42:46.491Z,9.05
2023-11-25T03:45:16.811Z,5.90
2023-11-25T03:47:45.801Z,8.25
2023-11-25T03:50:16.675Z,5.00
2023-11-25T03:52:43.653Z,7.38
2023-11-25T03:55:14.715Z,10.55
2023-11-25T03:57:42.601Z,3.47
2023-11-25T04:00:37.711Z,10.32
2023-11-25T04:03:04.471Z,9.77
2023-11-25T04:05:31.846Z,7.07
2023-11-25T04:07:58.499Z,6.47
2023-11-25T04:10:25.201Z,6.82
2023-11-25T04:12:53.284Z,9.85
2023-11-25T04:15:23.412Z,6.00
2023-11-25T04:17:51.778Z,7.25
2023-11-25T04:20:25.081Z,9.48
2023-11-25T04:22:51.890Z,4.30
2023-11-25T04:25:19.937Z,5.88
2023-11-25T04:27:48.694Z,6.18
2023-11-25T04:30:19.455Z,4.40
2023-11-25T04:32:48.302Z,4.85
2023-11-25T04:35:15.487Z,7.25
2023-11-25T04:37:46.668Z,8.98
2023-11-25T04:40:14.744Z,4.80
2023-11-25T04:42:42.884Z,7.97
2023-11-25T04:45:16.349Z,9.02
2023-11-25T04:47:47.288Z,7.40
2023-11-25T04:50:15.041Z,6.50
2023-11-25T04:52:42.506Z,8.73
2023-11-25T04:55:16.235Z,10.20
2023-11-25T04:57:43.844Z,12.38
2023-11-25T05:00:12.122Z,9.23
2023-11-25T05:02:39.788Z,7.70
2023-11-25T05:05:07.706Z,8.38
2023-11-25T05:07:35.014Z,7.78
2023-11-25T05:10:02.003Z,8.27
2023-11-25T05:12:28.964Z,9.15
2023-11-25T05:14:55.627Z,7.93
2023-11-25T05:17:22.770Z,4.97
2023-11-25T05:19:49.782Z,11.93
2023-11-25T05:22:16.472Z,8.43
2023-11-25T05:24:43.108Z,11.93
2023-11-25T05:27:09.714Z,10.20
2023-11-25T05:29:36.342Z,11.15
2023-11-25T05:32:04.319Z,11.52
2023-11-25T05:34:31.239Z,12.77
2023-11-25T05:36:58.250Z,9.75
2023-11-25T05:39:25.433Z,13.10
2023-11-25T05:41:52.603Z,11.05
2023-11-25T05:44:21.539Z,16.00
2023-11-25T05:46:48.348Z,15.20
2023-11-25T05:49:14.996Z,11.82
2023-11-25T05:51:45.009Z,16.13
2023-11-25T05:54:13.913Z,13.48
2023-11-25T05:56:41.771Z,15.18
2023-11-25T05:59:11.668Z,9.98
2023-11-25T06:01:39.371Z,13.63
2023-11-25T06:04:06.369Z,13.45
2023-11-25T06:06:33.236Z,13.38
2023-11-25T06:08:59.850Z,11.23
2023-11-25T06:11:28.180Z,14.95
2023-11-25T06:13:58.492Z,10.88
2023-11-25T06:16:30.236Z,11.00
2023-11-25T06:18:56.977Z,17.00
2023-11-25T06:21:24.433Z,16.52
2023-11-25T06:23:51.719Z,22.67
2023-11-25T06:26:18.476Z,17.00
2023-11-25T06:28:48.331Z,21.02
2023-11-25T06:31:16.418Z,14.20
2023-11-25T06:33:43.266Z,24.67
2023-11-25T06:36:11.343Z,13.27
2023-11-25T06:38:38.617Z,15.15
2023-11-25T06:41:05.853Z,20.73
2023-11-25T06:43:32.626Z,20.20
2023-11-25T06:46:00.676Z,17.58
2023-11-25T06:48:30.208Z,15.45
2023-11-25T06:50:59.070Z,27.30
2023-11-25T06:53:25.690Z,20.10
2023-11-25T06:55:52.305Z,13.80
2023-11-25T06:58:19.459Z,23.38
2023-11-25T07:00:46.474Z,21.42
2023-11-25T07:03:13.261Z,16.65
2023-11-25T07:05:39.938Z,19.10
2023-11-25T07:08:06.930Z,22.17
2023-11-25T07:10:35.850Z,24.95
2023-11-25T07:13:03.698Z,13.63
2023-11-25T07:15:30.745Z,16.88
2023-11-25T07:17:58.320Z,20.55
2023-11-25T07:20:25.276Z,17.42
2023-11-25T07:22:52.005Z,13.05
2023-11-25T07:25:19.735Z,14.95
2023-11-25T07:27:47.201Z,16.45
2023-11-25T07:30:15.666Z,15.90
2023-11-25T07:32:43.210Z,18.42
2023-11-25T07:35:09.934Z,19.15
2023-11-25T07:37:36.878Z,14.45
2023-11-25T07:40:10.732Z,25.75
2023-11-25T07:42:40.459Z,28.17
2023-11-25T07:45:11.316Z,17.55
2023-11-25T07:47:38.792Z,16.38
2023-11-25T07:50:06.276Z,15.85
2023-11-25T07:52:33.065Z,20.17
2023-11-25T07:54:59.788Z,15.23
2023-11-25T07:57:27.545Z,17.90
2023-11-25T07:59:54.444Z,19.15
2023-11-25T08:02:21.217Z,21.10
2023-11-25T08:04:48.163Z,19.77
2023-11-25T08:07:15.907Z,17.67
2023-11-25T08:09:43.331Z,15.60
2023-11-25T08:12:10.511Z,18.20
2023-11-25T08:14:37.337Z,20.38
2023-11-25T08:17:04.051Z,16.60
2023-11-25T08:19:30.758Z,19.33
2023-11-25T08:21:57.518Z,25.30
2023-11-25T08:24:24.340Z,21.90
2023-11-25T08:26:51.443Z,21.77
2023-11-25T08:29:19.604Z,20.63
2023-11-25T08:31:46.767Z,18.00
2023-11-25T08:34:14.654Z,15.25
2023-11-25T08:43:15.068Z,12.65
2023-11-25T08:45:43.248Z,25.38
2023-11-25T08:48:11.757Z,19.17
2023-11-25T08:50:38.583Z,9.57
2023-11-25T08:53:05.166Z,22.77
2023-11-25T08:55:31.929Z,16.08
2023-11-25T08:57:58.622Z,17.80
2023-11-25T09:00:25.325Z,17.52
2023-11-25T09:02:53.666Z,15.77
2023-11-25T09:05:27.088Z,18.23
2023-11-25T09:08:00.298Z,10.05
2023-11-25T09:10:28.477Z,21.40
2023-11-25T09:12:57.572Z,20.90
2023-11-25T09:18:32.812Z,16.73
2023-11-25T09:20:59.421Z,15.70
2023-11-25T09:23:26.224Z,12.05
2023-11-25T09:25:52.944Z,16.63
2023-11-25T09:28:19.665Z,10.15
2023-11-25T09:30:46.677Z,19.20
2023-11-25T09:33:13.345Z,20.95
2023-11-25T09:35:40.023Z,19.75
2023-11-25T09:38:07.171Z,16.77
2023-11-25T09:40:34.012Z,14.38
2023-11-25T09:43:00.787Z,18.95
2023-11-25T09:45:30.693Z,16.65
2023-11-25T09:47:57.592Z,15.70
2023-11-25T09:50:24.422Z,18.13
2023-11-25T09:52:53.680Z,15.52
2023-11-25T09:55:23.401Z,14.05
2023-11-25T09:57:54.767Z,13.27
2023-11-25T10:00:22.434Z,15.13
2023-11-25T10:02:56.985Z,16.65
2023-11-25T10:05:23.843Z,18.88
2023-11-25T10:07:50.550Z,13.50
2023-11-25T10:10:25.126Z,15.05
2023-11-25T10:12:52.263Z,15.05
2023-11-25T10:15:19.888Z,12.70
2023-11-25T10:17:46.639Z,17.92
2023-11-25T10:20:23.500Z,13.15
2023-11-25T10:22:54.508Z,14.18
2023-11-25T10:25:22.730Z,17.38
2023-11-25T10:27:52.294Z,11.27
2023-11-25T10:30:18.978Z,14.65
2023-11-25T10:32:45.842Z,18.88
2023-11-25T10:35:12.546Z,15.60
2023-11-25T10:37:42.844Z,14.30
2023-11-25T10:40:13.213Z,12.00
2023-11-25T10:42:43.555Z,14.98
2023-11-25T10:45:16.947Z,9.57
2023-11-25T10:47:44.426Z,15.30
2023-11-25T10:50:12.138Z,15.75
2023-11-25T10:52:41.087Z,12.15
2023-11-25T10:55:09.786Z,10.50
2023-11-25T10:57:37.080Z,10.20
2023-11-25T11:00:11.698Z,11.63
2023-11-25T11:02:56.331Z,7.03
2023-11-25T11:06:18.624Z,13.07
2023-11-25T11:08:50.197Z,10.43
2023-11-25T11:11:54.991Z,8.95
2023-11-25T11:17:50.097Z,12.23
2023-11-25T11:20:35.585Z,18.38
2023-11-25T11:28:06.313Z,13.88
2023-11-25T11:31:26.877Z,11.63
2023-11-25T11:33:53.702Z,5.75
2023-11-25T11:36:21.761Z,8.52
2023-11-25T11:38:48.335Z,10.15
2023-11-25T11:41:18.594Z,4.68
2023-11-25T11:44:04.414Z,9.93
2023-11-25T11:46:33.135Z,6.40
2023-11-25T11:49:02.852Z,7.03
2023-11-25T11:51:29.729Z,7.28
2023-11-25T11:54:20.996Z,7.88
2023-11-25T11:57:08.592Z,7.72
2023-11-25T12:00:14.347Z,10.20
2023-11-25T12:02:44.024Z,8.75
2023-11-25T12:05:11.763Z,5.47
2023-11-25T12:07:38.989Z,10.23
2023-11-25T12:10:07.433Z,8.85
2023-11-25T12:12:41.036Z,4.73
2023-11-25T12:15:09.339Z,6.57
2023-11-25T12:17:36.296Z,8.13
2023-11-25T12:20:03.813Z,10.57
2023-11-25T12:22:30.580Z,5.28
2023-11-25T12:24:57.285Z,5.30
2023-11-25T12:27:26.083Z,5.00
2023-11-25T12:29:52.742Z,7.90
2023-11-25T12:32:19.383Z,4.20
2023-11-25T12:34:46.581Z,5.70
2023-11-25T12:37:14.423Z,5.88
2023-11-25T12:39:41.249Z,5.90
2023-11-25T12:42:07.992Z,9.48
2023-11-25T12:44:54.917Z,11.32
2023-11-25T12:47:21.592Z,4.45
2023-11-25T12:49:50.773Z,4.05
2023-11-25T12:52:24.057Z,4.47
2023-11-25T12:54:51.048Z,4.97
2023-11-25T12:57:19.074Z,10.50
2023-11-25T12:59:47.122Z,4.32
2023-11-25T13:02:14.478Z,2.78
2023-11-25T13:04:48.217Z,3.55
2023-11-25T13:07:34.852Z,7.13
2023-11-25T13:10:03.654Z,4.53
2023-11-25T13:12:30.616Z,4.40
2023-11-25T13:14:58.103Z,4.97
2023-11-25T13:17:29.109Z,6.50
2023-11-25T13:19:56.891Z,9.13
2023-11-25T13:22:23.594Z,10.40
2023-11-25T13:24:50.430Z,8.25
2023-11-25T13:27:18.668Z,6.55
2023-11-25T13:29:45.574Z,9.60
2023-11-25T13:32:12.303Z,4.30
2023-11-25T13:34:42.092Z,5.18
2023-11-25T13:37:08.800Z,5.38
2023-11-25T13:39:35.480Z,5.47
2023-11-25T13:42:02.536Z,8.63
2023-11-25T13:44:29.119Z,5.65
2023-11-25T13:46:55.820Z,6.13
2023-11-25T13:49:22.985Z,9.40
2023-11-25T13:51:49.611Z,8.75
2023-11-25T13:54:16.519Z,8.15
2023-11-25T13:56:43.132Z,7.25
2023-11-25T13:59:09.662Z,12.32
2023-11-25T14:01:36.999Z,6.80
2023-11-25T14:04:04.082Z,9.95
2023-11-25T14:06:31.355Z,5.68
2023-11-25T14:08:59.955Z,6.22
2023-11-25T14:11:27.052Z,4.63
2023-11-25T14:13:54.011Z,3.28
2023-11-25T14:16:21.792Z,7.13
2023-11-25T14:18:49.045Z,8.20
2023-11-25T14:21:15.731Z,9.23
2023-11-25T14:23:42.283Z,5.10
2023-11-25T14:26:09.961Z,5.22
2023-11-25T14:28:36.623Z,4.55
2023-11-25T14:31:03.303Z,8.05
2023-11-25T14:33:29.970Z,4.60
2023-11-25T14:35:56.686Z,5.53
2023-11-25T14:38:24.501Z,7.10
2023-11-25T14:40:51.201Z,7.97
2023-11-25T14:43:17.959Z,6.95
2023-11-25T14:45:44.606Z,5.60
2023-11-25T14:48:11.900Z,5.10
2023-11-25T14:50:42.021Z,6.70
2023-11-25T14:53:08.902Z,4.43
2023-11-25T14:55:35.794Z,6.47
2023-11-25T14:58:03.929Z,5.68
2023-11-25T15:00:30.973Z,4.38
2023-11-25T15:03:00.904Z,6.60
2023-11-25T15:05:27.782Z,6.30
2023-11-25T15:07:54.900Z,6.43
2023-11-25T15:10:25.964Z,7.85
2023-11-25T15:12:53.940Z,5.97
2023-11-25T15:15:20.673Z,5.40
2023-11-25T15:17:47.443Z,6.88
2023-11-25T15:20:15.484Z,4.43
2023-11-25T15:22:42.433Z,4.50
2023-11-25T15:25:09.511Z,6.53
2023-11-25T15:27:36.174Z,3.83
2023-11-25T15:30:11.488Z,4.05
2023-11-25T15:32:43.465Z,5.05
2023-11-25T15:35:11.121Z,5.43
2023-11-25T15:37:38.261Z,3.72
2023-11-25T15:40:05.508Z,6.65
2023-11-25T15:42:32.079Z,6.30
2023-11-25T15:44:58.702Z,4.50
2023-11-25T15:47:25.303Z,7.47
2023-11-25T15:49:51.957Z,5.97
2023-11-25T15:52:19.872Z,6.60
2023-11-25T15:54:46.517Z,6.55
2023-11-25T15:57:13.084Z,5.20
2023-11-25T15:59:43.252Z,4.00
2023-11-25T16:02:10.353Z,3.92
2023-11-25T16:04:38.149Z,7.78
2023-11-25T16:07:07.840Z,4.47
2023-11-25T16:09:36.711Z,7.82
2023-11-25T16:12:03.970Z,7.22
2023-11-25T16:14:30.757Z,4.03
2023-11-25T16:16:57.356Z,4.18
2023-11-25T16:19:23.975Z,2.53
2023-11-25T16:21:53.729Z,4.03
2023-11-25T16:24:20.356Z,3.40
2023-11-25T16:26:47.117Z,3.10
2023-11-25T16:29:13.806Z,10.25
2023-11-25T16:31:41.026Z,7.63
2023-11-25T16:34:07.914Z,11.80
2023-11-25T16:36:35.641Z,19.30
2023-11-25T16:39:02.389Z,8.45
2023-11-25T16:41:29.558Z,10.15
2023-11-25T16:43:57.680Z,13.30
2023-11-25T16:46:24.514Z,8.23
2023-11-25T16:51:59.302Z,5.38
2023-11-25T16:54:26.431Z,7.13
2023-11-25T16:56:53.183Z,10.43
2023-11-25T16:59:20.100Z,9.13
2023-11-25T17:01:48.063Z,7.18
2023-11-25T17:04:15.686Z,8.65
2023-11-25T17:06:42.688Z,8.38
2023-11-25T17:09:09.585Z,8.88
2023-11-25T17:11:36.383Z,7.35
2023-11-25T17:14:03.178Z,9.48
2023-11-25T17:16:31.267Z,29.88
2023-11-25T17:18:58.878Z,13.43
2023-11-25T17:21:25.437Z,9.93
2023-11-25T17:23:52.179Z,10.13
2023-11-25T17:26:20.440Z,13.77
2023-11-25T17:28:47.202Z,6.93
2023-11-25T17:31:13.789Z,9.30
2023-11-25T17:33:40.877Z,8.93
2023-11-25T17:36:07.917Z,6.75
2023-11-25T17:38:34.558Z,7.88
2023-11-25T17:41:01.388Z,7.75
2023-11-25T17:43:28.080Z,5.70
2023-11-25T17:45:55.056Z,7.70
2023-11-25T17:48:21.676Z,12.40
2023-11-25T17:50:48.238Z,8.18
2023-11-25T17:53:15.236Z,9.13
2023-11-25T17:55:42.027Z,9.02
2023-11-25T17:58:08.726Z,8.05
2023-11-25T18:00:35.310Z,11.20
2023-11-25T18:03:02.061Z,10.40
2023-11-25T18:05:28.782Z,6.93
2023-11-25T18:07:55.419Z,7.20
2023-11-25T18:10:22.114Z,5.85
2023-11-25T18:12:48.774Z,3.47
2023-11-25T18:15:15.404Z,2.90
2023-11-25T18:17:42.200Z,7.05
2023-11-25T18:20:12.165Z,3.50
2023-11-25T18:22:39.803Z,4.20
2023-11-25T18:25:06.973Z,3.22
2023-11-25T18:27:33.551Z,2.67
2023-11-25T18:30:00.108Z,2.63
2023-11-25T18:32:26.819Z,2.92
2023-11-25T18:34:53.390Z,2.78
2023-11-25T18:37:19.911Z,3.70
2023-11-25T18:39:46.538Z,5.10
2023-11-25T18:42:14.921Z,4.53
2023-11-25T18:44:42.777Z,3.30
2023-11-25T18:47:09.564Z,3.83
2023-11-25T18:49:36.304Z,3.83
2023-11-25T18:52:02.986Z,2.65
2023-11-25T18:54:31.773Z,3.63
2023-11-25T18:57:00.590Z,3.17
2023-11-25T18:59:27.209Z,3.25
2023-11-25T19:01:54.178Z,2.88
2023-11-25T19:04:23.110Z,3.95
2023-11-25T19:06:50.462Z,5.45
2023-11-25T19:09:18.692Z,3.38
2023-11-25T19:11:46.714Z,5.68
2023-11-25T19:14:16.323Z,4.20
2023-11-25T19:16:43.204Z,2.88
2023-11-25T19:19:10.981Z,2.20
2023-11-25T19:21:37.727Z,5.53
2023-11-25T19:24:04.721Z,2.90
2023-11-25T19:26:31.412Z,3.47
2023-11-25T19:28:58.106Z,2.30
2023-11-25T19:31:24.763Z,2.65
2023-11-25T19:33:52.548Z,3.42
2023-11-25T19:36:19.413Z,8.80
2023-11-25T19:38:46.360Z,6.05
2023-11-25T19:41:13.148Z,6.65
2023-11-25T19:43:39.867Z,5.43
2023-11-25T19:46:06.745Z,6.13
2023-11-25T19:48:34.261Z,3.92
2023-11-25T19:51:00.845Z,7.32
2023-11-25T19:53:49.100Z,3.95
2023-11-25T19:56:14.104Z,5.13
2023-11-25T19:58:41.760Z,6.53
2023-11-25T20:01:09.088Z,3.42
2023-11-25T20:03:35.795Z,8.02
2023-11-25T20:06:02.462Z,4.45
2023-11-25T20:08:29.180Z,3.50
2023-11-25T20:10:55.751Z,7.40
2023-11-25T20:13:22.365Z,5.28
2023-11-25T20:15:48.975Z,3.28
2023-11-25T20:18:15.688Z,4.60
2023-11-25T20:20:42.752Z,1.35
2023-11-25T20:23:09.602Z,3.90
2023-11-25T20:25:36.384Z,2.15
2023-11-25T20:28:03.371Z,2.05
2023-11-25T20:30:30.120Z,5.07
2023-11-25T20:32:56.966Z,6.05
2023-11-25T20:35:24.812Z,3.47
2023-11-25T20:37:51.539Z,2.42
2023-11-25T20:40:18.341Z,2.88
2023-11-25T20:42:45.214Z,3.47
2023-11-25T20:45:12.341Z,4.28
2023-11-25T20:47:38.956Z,5.68
2023-11-25T20:50:06.123Z,4.28
2023-11-25T20:52:33.182Z,3.75
2023-11-25T20:54:59.804Z,5.05
2023-11-25T20:57:26.370Z,3.25
2023-11-25T20:59:52.986Z,2.95
2023-11-25T21:02:19.854Z,2.42
2023-11-25T21:04:46.619Z,5.03
2023-11-25T21:07:13.239Z,7.03
2023-11-25T21:09:39.928Z,9.23
2023-11-25T21:12:07.283Z,7.25
2023-11-25T21:14:33.839Z,5.97
2023-11-25T21:17:04.708Z,9.10
2023-11-25T21:19:31.382Z,2.78
2023-11-25T21:21:59.310Z,3.92
2023-11-25T21:24:25.974Z,6.18
2023-11-25T21:26:52.614Z,6.18
2023-11-25T21:29:19.925Z,4.35
2023-11-25T21:31:48.031Z,3.92
2023-11-25T21:34:15.081Z,2.78
2023-11-25T21:36:41.723Z,5.63
2023-11-25T21:39:11.777Z,3.05
2023-11-25T21:41:38.766Z,5.45
2023-11-25T21:44:05.451Z,2.90
2023-11-25T21:46:32.161Z,4.55
2023-11-25T21:48:58.801Z,4.22
2023-11-25T21:51:25.422Z,3.33
2023-11-25T21:53:52.491Z,4.68
2023-11-25T21:56:19.323Z,3.00
2023-11-25T21:58:46.027Z,2.50
2023-11-25T22:01:12.624Z,4.22
2023-11-25T22:03:40.014Z,6.35
2023-11-25T22:06:07.447Z,3.50
2023-11-25T22:08:34.233Z,4.75
2023-11-25T22:11:01.316Z,6.82
2023-11-25T22:13:28.158Z,3.25
2023-11-25T22:15:58.333Z,5.57
2023-11-25T22:18:24.963Z,4.10
2023-11-25T22:20:51.497Z,2.63
2023-11-25T22:23:18.265Z,4.25
2023-11-25T22:25:52.302Z,4.03
2023-11-25T22:28:19.029Z,4.63
2023-11-25T22:30:45.715Z,4.60
2023-11-25T22:33:12.502Z,5.95
2023-11-25T22:35:48.043Z,4.45
2023-11-25T22:38:20.693Z,5.10
2023-11-25T22:40:49.000Z,7.32
2023-11-25T22:43:15.639Z,4.20
2023-11-25T22:45:42.271Z,6.85
2023-11-25T22:48:08.905Z,7.72
2023-11-25T22:50:35.488Z,7.18
2023-11-25T22:53:02.186Z,7.93
2023-11-25T22:55:29.246Z,5.15
2023-11-25T22:57:55.884Z,7.70
2023-11-25T23:00:30.057Z,6.68
2023-11-25T23:02:56.880Z,6.72
2023-11-25T23:05:23.615Z,7.38
2023-11-25T23:07:50.385Z,5.30
2023-11-25T23:10:17.221Z,5.60
2023-11-25T23:12:43.797Z,9.50
2023-11-25T23:15:10.919Z,7.97
2023-11-25T23:17:38.073Z,6.93
2023-11-25T23:20:12.177Z,5.32
2023-11-25T23:22:39.427Z,6.30
2023-11-25T23:25:07.388Z,6.78
2023-11-25T23:27:33.946Z,9.18
2023-11-25T23:30:01.358Z,7.22
2023-11-25T23:32:28.079Z,3.58
2023-11-25T23:34:54.709Z,4.13
2023-11-25T23:37:21.342Z,6.68
2023-11-25T23:39:48.057Z,5.00
2023-11-25T23:42:15.617Z,4.55
2023-11-25T23:44:42.187Z,8.48
2023-11-25T23:47:08.773Z,12.05
2023-11-25T23:49:36.038Z,7.13
2023-11-25T23:52:03.614Z,4.28
2023-11-25T23:54:30.171Z,7.07
2023-11-25T23:56:56.726Z,6.70
2023-11-25T23:59:23.342Z,8.50
